createdAt,value
2023-02-14T00:01:14.289Z,-2.54
2023-02-14T00:06:19.436Z,-2.43
2023-02-14T00:11:23.999Z,-2.28
2023-02-14T00:16:28.597Z,-2.11
2023-02-14T00:21:39.030Z,-1.94
2023-02-14T00:26:45.944Z,-1.76
2023-02-14T00:31:51.686Z,-1.56
2023-02-14T00:36:56.407Z,-1.37
2023-02-14T00:42:01.632Z,-1.10
2023-02-14T00:47:06.892Z,-0.84
2023-02-14T00:52:11.568Z,-0.60
2023-02-14T00:57:17.172Z,-0.38
2023-02-14T01:02:23.313Z,-0.12
2023-02-14T01:07:28.827Z,0.16
2023-02-14T01:12:33.466Z,0.34
2023-02-14T01:17:38.554Z,0.41
2023-02-14T01:22:44.099Z,0.62
2023-02-14T01:27:48.896Z,0.78
2023-02-14T01:32:53.522Z,0.92
2023-02-14T01:37:57.771Z,0.98
2023-02-14T01:43:02.577Z,0.98
2023-02-14T01:48:07.846Z,0.95
2023-02-14T01:53:21.589Z,1.04
2023-02-14T01:58:29.812Z,1.18
2023-02-14T02:03:43.840Z,1.34
2023-02-14T02:09:19.737Z,1.51
2023-02-14T02:14:24.845Z,1.62
2023-02-14T02:20:24.361Z,1.74
2023-02-14T02:26:05.913Z,1.80
2023-02-14T02:31:32.096Z,1.85
2023-02-14T02:37:24.576Z,1.94
2023-02-14T02:42:50.821Z,2.00
2023-02-14T02:48:35.363Z,2.10
2023-02-14T02:54:03.068Z,2.18
2023-02-14T02:59:22.291Z,2.26
2023-02-14T03:04:56.537Z,2.38
2023-02-14T03:10:24.859Z,2.49
2023-02-14T03:16:07.853Z,2.62
2023-02-14T03:21:34.998Z,2.80
2023-02-14T03:26:43.729Z,2.96
2023-02-14T03:32:21.257Z,3.14
2023-02-14T03:37:33.577Z,3.25
2023-02-14T03:43:17.923Z,3.36
2023-02-14T03:48:26.497Z,3.44
2023-02-14T03:53:36.509Z,3.51
2023-02-14T03:58:45.205Z,3.60
2023-02-14T04:03:52.141Z,3.63
2023-02-14T04:08:58.256Z,3.77
2023-02-14T04:14:03.796Z,3.90
2023-02-14T04:19:26.547Z,3.95
2023-02-14T04:24:32.278Z,4.08
2023-02-14T04:29:37.933Z,4.27
2023-02-14T04:34:42.890Z,4.39
2023-02-14T04:39:48.832Z,4.47
2023-02-14T04:44:53.471Z,4.56
2023-02-14T04:49:58.070Z,4.68
2023-02-14T04:55:02.889Z,4.84
2023-02-14T05:00:08.814Z,4.89
2023-02-14T05:05:14.932Z,4.90
2023-02-14T05:10:20.515Z,4.94
2023-02-14T05:15:26.222Z,4.99
2023-02-14T05:20:32.721Z,5.05
2023-02-14T05:25:37.323Z,5.12
2023-02-14T05:30:43.400Z,5.21
2023-02-14T05:35:48.062Z,5.28
2023-02-14T05:40:53.714Z,5.36
2023-02-14T05:45:59.806Z,5.49
2023-02-14T05:51:13.150Z,5.55
2023-02-14T05:56:17.944Z,5.62
2023-02-14T06:01:23.696Z,5.68
2023-02-14T06:06:28.389Z,5.72
2023-02-14T06:11:33.079Z,5.77
2023-02-14T06:16:39.254Z,5.78
2023-02-14T06:21:45.637Z,5.77
2023-02-14T06:26:50.194Z,5.80
2023-02-14T06:31:55.813Z,5.82
2023-02-14T06:37:00.605Z,5.84
2023-02-14T06:42:05.310Z,5.81
2023-02-14T06:47:10.138Z,5.74
2023-02-14T06:52:16.172Z,5.74
2023-02-14T06:57:20.842Z,5.66
2023-02-14T07:02:26.478Z,5.58
2023-02-14T07:07:33.932Z,5.54
2023-02-14T07:12:41.765Z,5.49
2023-02-14T07:17:47.460Z,5.44
2023-02-14T07:22:52.434Z,5.32
2023-02-14T07:27:56.808Z,5.23
2023-02-14T07:33:02.986Z,5.20
2023-02-14T07:38:08.591Z,5.17
2023-02-14T07:43:14.482Z,5.11
2023-02-14T07:48:19.204Z,5.08
2023-02-14T07:53:26.140Z,5.11
2023-02-14T07:58:31.008Z,5.08
2023-02-14T08:03:36.463Z,5.04
2023-02-14T08:08:41.092Z,5.01
2023-02-14T08:13:45.782Z,4.95
2023-02-14T08:18:50.390Z,4.84
2023-02-14T08:23:56.709Z,4.72
2023-02-14T08:29:02.908Z,4.61
2023-02-14T08:34:08.411Z,4.48
2023-02-14T08:39:13.081Z,4.43
2023-02-14T08:44:18.238Z,4.38
2023-02-14T08:49:22.927Z,4.27
2023-02-14T08:54:27.497Z,4.16
2023-02-14T08:59:32.107Z,4.07
2023-02-14T09:04:37.500Z,3.91
2023-02-14T09:09:42.135Z,3.78
2023-02-14T09:14:47.162Z,3.67
2023-02-14T09:19:51.950Z,3.57
2023-02-14T09:24:56.572Z,3.47
2023-02-14T09:30:01.279Z,3.37
2023-02-14T09:35:06.384Z,3.27
2023-02-14T09:40:17.368Z,3.17
2023-02-14T09:45:27.169Z,3.06
2023-02-14T09:51:01.084Z,2.90
2023-02-14T09:56:40.057Z,2.72
2023-02-14T10:02:03.705Z,2.57
2023-02-14T10:07:30.703Z,2.42
2023-02-14T10:12:36.266Z,2.26
2023-02-14T10:17:59.117Z,2.18
2023-02-14T10:23:12.638Z,2.11
2023-02-14T10:28:24.577Z,2.04
2023-02-14T10:33:35.376Z,1.95
2023-02-14T10:38:45.869Z,1.87
2023-02-14T10:44:36.503Z,1.79
2023-02-14T10:50:09.005Z,1.70
2023-02-14T10:55:32.293Z,1.60
2023-02-14T11:00:43.820Z,1.56
2023-02-14T11:05:50.372Z,1.50
2023-02-14T11:11:04.802Z,1.45
2023-02-14T11:16:29.091Z,1.38
2023-02-14T11:21:41.214Z,1.31
2023-02-14T11:26:54.170Z,1.27
2023-02-14T11:32:09.157Z,1.22
2023-02-14T11:37:28.109Z,1.22
2023-02-14T11:42:39.104Z,1.14
2023-02-14T11:47:44.426Z,1.00
2023-02-14T11:52:57.720Z,0.91
2023-02-14T11:58:07.791Z,0.85
2023-02-14T12:03:21.184Z,0.77
2023-02-14T12:08:30.193Z,0.57
2023-02-14T12:13:35.556Z,0.40
2023-02-14T12:19:04.730Z,0.11
2023-02-14T12:24:34.024Z,-0.21
2023-02-14T12:30:01.980Z,-0.44
2023-02-14T12:35:49.047Z,-0.59
2023-02-14T12:41:10.569Z,-0.61
2023-02-14T12:46:24.583Z,-0.57
2023-02-14T12:51:42.420Z,-0.63
2023-02-14T12:56:55.002Z,-0.74
2023-02-14T13:02:27.260Z,-0.82
2023-02-14T13:07:56.154Z,-0.87
2023-02-14T13:13:23.070Z,-0.84
2023-02-14T13:19:15.659Z,-0.78
2023-02-14T13:24:22.231Z,-0.80
2023-02-14T13:29:34.759Z,-0.85
2023-02-14T13:34:46.173Z,-0.85
2023-02-14T13:40:01.982Z,-0.84
2023-02-14T13:45:07.854Z,-0.80
2023-02-14T13:50:23.766Z,-0.76
2023-02-14T13:55:36.830Z,-0.77
2023-02-14T14:00:47.614Z,-0.70
2023-02-14T14:06:03.957Z,-0.64
2023-02-14T14:11:23.891Z,-0.60
2023-02-14T14:16:38.214Z,-0.60
2023-02-14T14:22:01.983Z,-0.61
2023-02-14T14:27:15.848Z,-0.69
2023-02-14T14:32:29.545Z,-0.85
2023-02-14T14:37:37.317Z,-0.99
2023-02-14T14:42:43.161Z,-1.07
2023-02-14T14:47:49.457Z,-1.16
2023-02-14T14:53:02.049Z,-1.24
2023-02-14T14:58:33.031Z,-1.28
2023-02-14T15:03:39.480Z,-1.30
2023-02-14T15:08:45.300Z,-1.29
2023-02-14T15:13:56.829Z,-1.33
2023-02-14T15:19:09.399Z,-1.38
2023-02-14T15:24:17.762Z,-1.40
2023-02-14T15:29:34.827Z,-1.43
2023-02-14T15:34:39.830Z,-1.52
2023-02-14T15:39:49.837Z,-1.59
2023-02-14T15:45:30.795Z,-1.64
2023-02-14T15:50:43.983Z,-1.67
2023-02-14T15:55:53.351Z,-1.73
2023-02-14T16:00:58.524Z,-1.77
2023-02-14T16:06:03.740Z,-1.76
2023-02-14T16:11:17.058Z,-1.68
2023-02-14T16:16:22.867Z,-1.68
2023-02-14T16:21:32.441Z,-1.66
2023-02-14T16:26:41.347Z,-1.65
2023-02-14T16:32:15.570Z,-1.67
2023-02-14T16:37:26.768Z,-1.70
2023-02-14T16:42:32.681Z,-1.80
2023-02-14T16:47:37.675Z,-1.94
2023-02-14T16:52:45.339Z,-2.07
2023-02-14T16:57:54.409Z,-2.19
2023-02-14T17:03:13.178Z,-2.32
2023-02-14T17:08:19.559Z,-2.40
2023-02-14T17:13:28.409Z,-2.38
2023-02-14T17:18:36.746Z,-2.47
2023-02-14T17:23:41.814Z,-2.54
2023-02-14T17:28:50.307Z,-2.61
2023-02-14T17:33:56.035Z,-2.68
2023-02-14T17:39:02.650Z,-2.69
2023-02-14T17:44:09.973Z,-2.69
2023-02-14T17:49:14.783Z,-2.69
2023-02-14T17:54:20.979Z,-2.74
2023-02-14T17:59:26.111Z,-2.76
2023-02-14T18:04:31.578Z,-2.76
2023-02-14T18:09:36.481Z,-2.74
2023-02-14T18:14:41.590Z,-2.72
2023-02-14T18:19:48.770Z,-2.68
2023-02-14T18:24:53.888Z,-2.65
2023-02-14T18:29:58.909Z,-2.64
2023-02-14T18:35:03.893Z,-2.64
2023-02-14T18:40:11.079Z,-2.67
2023-02-14T18:45:16.429Z,-2.70
2023-02-14T18:50:23.422Z,-2.74
2023-02-14T18:55:28.814Z,-2.82
2023-02-14T19:00:34.954Z,-2.86
2023-02-14T19:05:40.422Z,-2.89
2023-02-14T19:10:45.546Z,-2.91
2023-02-14T19:15:51.036Z,-2.90
2023-02-14T19:20:57.140Z,-2.90
2023-02-14T19:26:22.114Z,-2.89
2023-02-14T19:31:28.496Z,-2.89
2023-02-14T19:36:34.818Z,-2.91
2023-02-14T19:41:41.374Z,-2.93
2023-02-14T19:46:47.910Z,-2.88
2023-02-14T19:51:54.086Z,-2.89
2023-02-14T19:56:59.132Z,-2.96
2023-02-14T20:02:05.179Z,-2.87
2023-02-14T20:07:11.442Z,-2.91
2023-02-14T20:12:17.157Z,-2.98
2023-02-14T20:17:21.856Z,-3.02
2023-02-14T20:22:27.823Z,-3.07
2023-02-14T20:27:33.681Z,-3.11
2023-02-14T20:32:38.856Z,-3.15
2023-02-14T20:37:43.877Z,-3.19
2023-02-14T20:42:51.173Z,-3.17
2023-02-14T20:47:55.765Z,-3.22
2023-02-14T20:53:00.622Z,-3.22
2023-02-14T20:58:05.682Z,-3.30
2023-02-14T21:03:11.811Z,-3.36
2023-02-14T21:08:19.349Z,-3.45
2023-02-14T21:13:25.799Z,-3.51
2023-02-14T21:18:32.941Z,-3.57
2023-02-14T21:23:38.085Z,-3.59
2023-02-14T21:28:43.149Z,-3.62
2023-02-14T21:33:52.395Z,-3.61
2023-02-14T21:39:01.581Z,-3.55
2023-02-14T21:44:07.761Z,-3.53
2023-02-14T21:49:32.988Z,-3.51
2023-02-14T21:54:38.061Z,-3.52
2023-02-14T21:59:43.142Z,-3.52
2023-02-14T22:04:48.471Z,-3.54
2023-02-14T22:09:54.670Z,-3.59
2023-02-14T22:15:03.228Z,-3.71
2023-02-14T22:20:11.428Z,-3.76
2023-02-14T22:25:16.701Z,-3.84
2023-02-14T22:30:21.937Z,-3.91
2023-02-14T22:35:28.243Z,-3.93
2023-02-14T22:40:33.487Z,-3.92
2023-02-14T22:45:38.816Z,-3.85
2023-02-14T22:50:44.587Z,-3.83
2023-02-14T22:55:49.625Z,-3.80
2023-02-14T23:00:54.571Z,-3.77
2023-02-14T23:06:01.663Z,-3.68
2023-02-14T23:11:19.258Z,-3.63
2023-02-14T23:16:43.432Z,-3.63
2023-02-14T23:21:57.350Z,-3.66
2023-02-14T23:27:02.103Z,-3.65
2023-02-14T23:32:09.660Z,-3.64
2023-02-14T23:37:17.064Z,-3.67
2023-02-14T23:42:22.394Z,-3.60
2023-02-14T23:47:27.515Z,-3.45
2023-02-14T23:52:33.595Z,-3.34
2023-02-14T23:57:39.100Z,-3.17
